Wietersdorf Heliport LOKI

Flugplatz Daten

Name: Wietersdorf Heliport

Ident: LOKI

Lat: 46,84777832

Long: 14,53694439

Platzhöhe: 2070 ft

IataCode:

City: Wietersdorf

Metar

2021/04/06 14:00
BIGJ 061400Z 19003KT 9999 FEW040 M04/M12 Q1033 RMK MOKSTUR SOPUN LOKID

Taf

Gewünschte Webcam nicht vorhanden? Dann fügen Sie eine hinzu. Sie wird dann so schnell wie möglich freigeschaltet
Url: Title: